Ibi, Spain
Current Conditions -  °F | °C
As of 3:30 PM on Wednesday 22 Oct 2014 (Local Time) from LEAL Reporting Station
Clear Clear  
Wind Chill: 75°   Ceiling: Unl
Heat Index: 75°   Visibility: 6mi
Dew Point: 57°   Wind: 16mph
Humidity: 53%   Direction: 80°E
Pressure: 30.18"   Gusts: NA
Location:  38.63°N, 0.57°W
Report Text: LEAL 221330Z 08014KT CAVOK 24/14 Q1022 NOSIG
Loading
Personal Weather Stations






























Interactive Weather Map
Tropical Storm Tracking
New forecast layout! Learn more

10-Day Weather Forecast

Advertisements
Track Severe Weather on mobile